createdAt,value
2017-06-23T00:01:43.466Z,47.37
2017-06-23T00:04:11.788Z,52.23
2017-06-23T00:06:40.168Z,54.63
2017-06-23T00:09:08.550Z,50.47
2017-06-23T00:11:37.332Z,48.10
2017-06-23T00:14:05.646Z,48.57
2017-06-23T00:16:34.057Z,56.37
2017-06-23T00:19:02.467Z,51.10
2017-06-23T00:21:30.848Z,56.07
2017-06-23T00:23:59.226Z,54.50
2017-06-23T00:26:27.540Z,52.87
2017-06-23T00:28:55.878Z,50.97
2017-06-23T00:31:24.258Z,49.30
2017-06-23T00:33:52.954Z,54.13
2017-06-23T00:36:21.289Z,50.00
2017-06-23T00:38:49.599Z,52.50
2017-06-23T00:41:17.976Z,49.80
2017-06-23T00:43:46.296Z,47.90
2017-06-23T00:46:14.608Z,48.43
2017-06-23T00:48:43.715Z,49.40
2017-06-23T00:51:12.707Z,44.97
2017-06-23T00:53:41.091Z,49.37
2017-06-23T00:56:09.429Z,48.60
2017-06-23T00:58:37.746Z,51.27
2017-06-23T01:01:06.267Z,49.97
2017-06-23T01:03:34.600Z,57.80
2017-06-23T01:06:02.976Z,51.83
2017-06-23T01:08:31.466Z,55.60
2017-06-23T01:11:00.555Z,59.00
2017-06-23T01:13:28.927Z,54.30
2017-06-23T01:15:57.374Z,49.63
2017-06-23T01:18:25.726Z,48.67
2017-06-23T01:20:54.039Z,50.37
2017-06-23T01:23:22.449Z,54.43
2017-06-23T01:25:51.547Z,52.00
2017-06-23T01:28:20.741Z,58.57
2017-06-23T01:30:49.062Z,57.83
2017-06-23T01:33:17.423Z,55.30
2017-06-23T01:35:45.754Z,63.00
2017-06-23T01:38:14.870Z,59.07
2017-06-23T01:40:43.565Z,61.83
2017-06-23T01:43:11.960Z,59.47
2017-06-23T01:45:40.707Z,59.80
2017-06-23T01:48:09.815Z,58.10
2017-06-23T01:50:38.294Z,58.93
2017-06-23T01:53:06.627Z,53.60
2017-06-23T01:55:34.927Z,61.43
2017-06-23T01:58:04.098Z,59.93
2017-06-23T02:00:32.395Z,56.17
2017-06-23T02:03:01.490Z,63.13
2017-06-23T02:05:29.886Z,61.13
2017-06-23T02:07:58.979Z,55.70
2017-06-23T02:10:28.039Z,52.07
2017-06-23T02:12:56.374Z,51.47
2017-06-23T02:15:24.674Z,49.83
2017-06-23T02:17:53.298Z,46.10
2017-06-23T02:20:22.415Z,48.97
2017-06-23T02:22:51.510Z,47.77
2017-06-23T02:25:19.847Z,53.20
2017-06-23T02:27:48.370Z,48.10
2017-06-23T02:30:17.555Z,50.10
2017-06-23T02:32:46.661Z,49.00
2017-06-23T02:35:15.750Z,48.40
2017-06-23T02:37:44.854Z,52.87
2017-06-23T02:40:14.356Z,57.70
2017-06-23T02:42:43.452Z,61.27
2017-06-23T02:45:11.750Z,47.30
2017-06-23T02:47:40.100Z,45.00
2017-06-23T02:50:08.524Z,44.13
2017-06-23T02:52:36.883Z,46.73
2017-06-23T02:55:05.234Z,62.97
2017-06-23T02:57:33.715Z,41.67
2017-06-23T03:00:02.796Z,47.70
2017-06-23T03:02:31.078Z,40.50
2017-06-23T03:05:00.174Z,46.97
2017-06-23T03:07:28.711Z,66.87
2017-06-23T03:09:57.067Z,43.77
2017-06-23T03:12:25.470Z,58.40
2017-06-23T03:14:53.889Z,43.50
2017-06-23T03:17:22.266Z,59.23
2017-06-23T03:19:51.472Z,50.50
2017-06-23T03:22:19.847Z,49.70
2017-06-23T03:24:48.944Z,53.50
2017-06-23T03:27:18.038Z,47.00
2017-06-23T03:29:46.416Z,43.77
2017-06-23T03:32:15.518Z,44.50
2017-06-23T03:34:44.092Z,47.87
2017-06-23T03:37:14.359Z,53.40
2017-06-23T03:39:42.674Z,50.60
2017-06-23T03:42:11.783Z,53.73
2017-06-23T03:44:40.163Z,53.70
2017-06-23T03:47:08.550Z,55.37
2017-06-23T03:49:36.886Z,49.27
2017-06-23T03:52:05.189Z,51.03
2017-06-23T03:54:34.496Z,49.70
2017-06-23T03:57:03.558Z,47.87
2017-06-23T03:59:31.963Z,52.60
2017-06-23T04:02:01.166Z,52.37
2017-06-23T04:04:30.260Z,40.17
2017-06-23T04:06:59.310Z,38.40
2017-06-23T04:09:27.610Z,42.77
2017-06-23T04:11:55.947Z,34.60
2017-06-23T04:14:24.288Z,42.40
2017-06-23T04:16:52.619Z,42.87
2017-06-23T04:19:20.919Z,35.10
2017-06-23T04:21:49.619Z,33.80
2017-06-23T04:24:18.068Z,33.07
2017-06-23T04:26:46.476Z,38.60
2017-06-23T04:29:15.571Z,38.27
2017-06-23T04:31:43.900Z,38.83
2017-06-23T04:34:12.231Z,50.03
2017-06-23T04:36:40.598Z,53.90
2017-06-23T04:39:08.981Z,41.13
2017-06-23T04:41:37.364Z,37.23
2017-06-23T04:44:06.570Z,31.43
2017-06-23T04:46:35.627Z,52.23
2017-06-23T04:49:04.338Z,37.53
2017-06-23T04:51:32.659Z,35.77
2017-06-23T04:54:00.987Z,34.27
2017-06-23T04:56:30.202Z,35.17
2017-06-23T04:58:58.518Z,35.17
2017-06-23T05:01:26.852Z,33.10
2017-06-23T05:03:55.915Z,36.67
2017-06-23T05:06:24.324Z,38.57
2017-06-23T05:08:52.762Z,38.30
2017-06-23T05:11:21.362Z,38.93
2017-06-23T05:13:50.470Z,36.40
2017-06-23T05:16:19.558Z,36.33
2017-06-23T05:18:47.956Z,34.30
2017-06-23T05:21:17.038Z,41.57
2017-06-23T05:23:45.418Z,40.20
2017-06-23T05:26:14.614Z,31.90
2017-06-23T05:28:42.998Z,36.90
2017-06-23T05:31:12.070Z,35.93
2017-06-23T05:33:41.387Z,38.93
2017-06-23T05:36:10.471Z,41.23
2017-06-23T05:38:38.771Z,35.10
2017-06-23T05:41:07.145Z,38.33
2017-06-23T05:43:35.651Z,36.40
2017-06-23T05:46:04.045Z,33.47
2017-06-23T05:48:32.408Z,34.60
2017-06-23T05:51:00.739Z,30.30
2017-06-23T05:53:29.048Z,34.67
2017-06-23T05:55:57.409Z,30.60
2017-06-23T05:58:27.405Z,33.03
2017-06-23T06:00:55.908Z,31.80
2017-06-23T06:03:25.003Z,35.90
2017-06-23T06:05:54.099Z,32.20
2017-06-23T06:08:22.479Z,33.83
2017-06-23T06:10:50.802Z,29.30
2017-06-23T06:13:19.143Z,31.70
2017-06-23T06:15:47.462Z,30.20
2017-06-23T06:18:15.776Z,29.00
2017-06-23T06:20:44.849Z,25.47
2017-06-23T06:23:13.347Z,27.83
2017-06-23T06:25:42.443Z,31.73
2017-06-23T06:28:11.543Z,34.77
2017-06-23T06:30:39.918Z,46.00
2017-06-23T06:33:09.047Z,42.80
2017-06-23T06:35:37.595Z,30.40
2017-06-23T06:38:06.703Z,20.30
2017-06-23T06:40:35.795Z,22.60
2017-06-23T06:43:04.843Z,24.47
2017-06-23T06:45:33.368Z,24.80
2017-06-23T06:48:02.468Z,27.03
2017-06-23T06:50:31.545Z,26.83
2017-06-23T06:53:00.022Z,26.43
2017-06-23T06:55:29.173Z,29.37
2017-06-23T06:57:58.227Z,20.60
2017-06-23T07:00:26.600Z,18.33
2017-06-23T07:02:55.185Z,25.60
2017-06-23T07:05:24.279Z,26.33
2017-06-23T07:07:53.571Z,23.17
2017-06-23T07:10:22.650Z,22.73
2017-06-23T07:12:51.111Z,23.53
2017-06-23T07:15:19.528Z,27.17
2017-06-23T07:17:48.598Z,18.27
2017-06-23T07:20:16.925Z,31.07
2017-06-23T07:22:45.215Z,28.00
2017-06-23T07:25:13.658Z,24.63
2017-06-23T07:27:42.034Z,22.77
2017-06-23T07:30:10.354Z,21.37
2017-06-23T07:32:38.797Z,28.50
2017-06-23T07:35:07.112Z,27.37
2017-06-23T07:37:35.450Z,20.20
2017-06-23T07:40:03.772Z,23.37
2017-06-23T07:42:32.209Z,23.83
2017-06-23T07:45:00.511Z,16.20
2017-06-23T07:47:28.950Z,15.13
2017-06-23T07:49:58.010Z,21.80
2017-06-23T07:52:26.431Z,18.03
2017-06-23T07:54:55.627Z,17.80
2017-06-23T07:57:23.923Z,26.00
2017-06-23T07:59:52.280Z,19.37
2017-06-23T08:02:21.343Z,18.30
2017-06-23T08:04:50.671Z,18.37
2017-06-23T08:07:19.750Z,16.67
2017-06-23T08:09:48.067Z,22.13
2017-06-23T08:12:16.423Z,17.63
2017-06-23T08:14:45.486Z,33.80
2017-06-23T08:17:13.960Z,20.10
2017-06-23T08:19:42.382Z,18.43
2017-06-23T08:22:11.067Z,18.50
2017-06-23T08:24:39.455Z,24.43
2017-06-23T08:27:07.783Z,31.60
2017-06-23T08:29:36.940Z,22.43
2017-06-23T08:32:05.270Z,24.63
2017-06-23T08:34:33.767Z,30.57
2017-06-23T08:37:02.848Z,24.60
2017-06-23T08:39:31.925Z,26.87
2017-06-23T08:42:00.343Z,33.70
2017-06-23T08:44:29.404Z,41.23
2017-06-23T08:46:57.823Z,42.77
2017-06-23T08:49:26.886Z,40.57
2017-06-23T08:51:55.391Z,38.67
2017-06-23T08:54:23.702Z,28.53
2017-06-23T08:56:52.055Z,28.77
2017-06-23T08:59:20.638Z,32.60
2017-06-23T09:01:49.004Z,32.50
2017-06-23T09:04:17.398Z,27.30
2017-06-23T09:06:47.401Z,33.47
2017-06-23T09:09:16.498Z,25.80
2017-06-23T09:11:45.591Z,28.33
2017-06-23T09:14:13.903Z,23.43
2017-06-23T09:16:42.562Z,21.80
2017-06-23T09:19:11.036Z,24.13
2017-06-23T09:21:39.350Z,25.30
2017-06-23T09:24:07.684Z,23.40
2017-06-23T09:26:36.474Z,29.63
2017-06-23T09:29:05.576Z,35.23
2017-06-23T09:31:34.758Z,23.20
2017-06-23T09:34:03.859Z,30.33
2017-06-23T09:36:32.239Z,21.10
2017-06-23T09:39:01.305Z,21.97
2017-06-23T09:41:29.816Z,30.27
2017-06-23T09:43:58.293Z,22.17
2017-06-23T09:46:26.777Z,28.43
2017-06-23T09:48:55.165Z,29.93
2017-06-23T09:51:24.148Z,19.57
2017-06-23T09:53:52.522Z,20.00
2017-06-23T09:56:20.830Z,20.70
2017-06-23T09:58:49.271Z,20.03
2017-06-23T10:01:18.416Z,38.97
2017-06-23T10:03:46.726Z,28.10
2017-06-23T10:06:15.056Z,33.83
2017-06-23T10:08:43.388Z,30.20
2017-06-23T10:11:11.730Z,34.47
2017-06-23T10:13:40.160Z,28.00
2017-06-23T10:16:08.635Z,19.20
2017-06-23T10:18:36.946Z,17.03
2017-06-23T10:21:05.263Z,20.93
2017-06-23T10:23:33.591Z,18.27
2017-06-23T10:26:02.106Z,17.93
2017-06-23T10:28:30.443Z,27.67
2017-06-23T10:30:58.768Z,24.20
2017-06-23T10:33:27.079Z,27.00
2017-06-23T10:35:55.390Z,40.33
2017-06-23T10:38:24.603Z,36.80
2017-06-23T10:40:52.906Z,30.30
2017-06-23T10:43:21.311Z,40.57
2017-06-23T10:45:49.624Z,19.10
2017-06-23T10:48:17.923Z,53.57
2017-06-23T10:50:46.237Z,57.07
2017-06-23T10:53:15.300Z,35.77
2017-06-23T10:55:43.739Z,18.50
2017-06-23T10:58:12.046Z,18.77
2017-06-23T11:00:40.379Z,30.97
2017-06-23T11:03:08.715Z,22.07
2017-06-23T11:05:37.795Z,20.20
2017-06-23T11:08:06.130Z,40.80
2017-06-23T11:10:34.435Z,26.53
2017-06-23T11:13:03.088Z,29.03
2017-06-23T11:15:31.453Z,20.73
2017-06-23T11:17:59.787Z,20.30
2017-06-23T11:20:28.131Z,21.70
2017-06-23T11:22:56.439Z,21.30
2017-06-23T11:25:24.801Z,18.90
2017-06-23T11:27:53.116Z,21.43
2017-06-23T11:30:21.568Z,20.60
2017-06-23T11:32:49.880Z,17.27
2017-06-23T11:35:18.184Z,16.00
2017-06-23T11:37:46.517Z,18.43
2017-06-23T11:40:14.853Z,25.77
2017-06-23T11:42:43.400Z,21.27
2017-06-23T11:45:11.858Z,21.10
2017-06-23T11:47:40.173Z,27.17
2017-06-23T11:50:08.547Z,22.50
2017-06-23T11:52:36.871Z,14.60
2017-06-23T11:55:05.396Z,19.63
2017-06-23T11:57:33.703Z,17.27
2017-06-23T12:00:02.141Z,36.50
2017-06-23T12:02:30.503Z,36.23
2017-06-23T12:04:59.947Z,16.97
2017-06-23T12:07:29.087Z,23.53
2017-06-23T12:09:57.383Z,28.53
2017-06-23T12:12:27.439Z,36.60
2017-06-23T12:14:56.566Z,45.90
2017-06-23T12:17:26.679Z,45.77
2017-06-23T12:19:55.162Z,25.90
2017-06-23T12:22:23.658Z,20.93
2017-06-23T12:24:52.177Z,26.53
2017-06-23T12:27:20.475Z,44.80
2017-06-23T12:29:49.050Z,16.53
2017-06-23T12:32:17.359Z,22.90
2017-06-23T12:34:45.662Z,24.53
2017-06-23T12:37:14.877Z,30.90
2017-06-23T12:39:44.000Z,22.70
2017-06-23T12:42:13.013Z,38.50
2017-06-23T12:44:41.335Z,17.33
2017-06-23T12:47:09.658Z,48.03
2017-06-23T12:49:38.027Z,26.87
2017-06-23T12:52:06.356Z,23.37
2017-06-23T12:54:34.688Z,28.03
2017-06-23T12:57:03.002Z,23.50
2017-06-23T12:59:31.341Z,32.53
2017-06-23T13:01:59.636Z,14.73
2017-06-23T13:04:27.958Z,14.40
2017-06-23T13:06:56.358Z,15.80
2017-06-23T13:09:24.791Z,15.40
2017-06-23T13:11:53.134Z,20.20
2017-06-23T13:14:21.451Z,31.13
2017-06-23T13:16:50.547Z,31.10
2017-06-23T13:19:18.867Z,59.30
2017-06-23T13:21:47.227Z,29.47
2017-06-23T13:24:15.543Z,33.70
2017-06-23T13:26:43.875Z,26.33
2017-06-23T13:29:12.950Z,27.47
2017-06-23T13:31:42.208Z,36.20
2017-06-23T13:34:10.531Z,30.30
2017-06-23T13:36:39.610Z,24.63
2017-06-23T13:39:08.027Z,25.60
2017-06-23T13:41:36.331Z,23.40
2017-06-23T13:44:04.675Z,19.37
2017-06-23T13:46:32.996Z,19.50
2017-06-23T13:49:01.338Z,37.43
2017-06-23T13:51:29.713Z,18.63
2017-06-23T13:53:59.119Z,33.77
2017-06-23T13:56:27.430Z,41.77
2017-06-23T13:58:56.534Z,50.97
2017-06-23T14:01:24.889Z,30.13
2017-06-23T14:03:53.178Z,23.40
2017-06-23T14:06:21.525Z,26.70
2017-06-23T14:08:49.959Z,39.77
2017-06-23T14:11:18.780Z,24.03
2017-06-23T14:13:47.852Z,21.30
2017-06-23T14:16:16.159Z,17.27
2017-06-23T14:18:45.251Z,27.23
2017-06-23T14:21:14.330Z,31.60
2017-06-23T14:23:42.635Z,28.60
2017-06-23T14:26:10.938Z,26.90
2017-06-23T14:28:39.583Z,20.00
2017-06-23T14:31:07.874Z,20.57
2017-06-23T14:33:36.427Z,19.63
2017-06-23T14:36:04.762Z,26.90
2017-06-23T14:38:33.082Z,24.90
2017-06-23T14:41:01.635Z,38.33
2017-06-23T14:43:29.939Z,22.97
2017-06-23T14:45:58.284Z,22.60
2017-06-23T14:48:26.583Z,23.00
2017-06-23T14:50:55.297Z,19.13
2017-06-23T14:53:23.597Z,19.67
2017-06-23T14:55:51.912Z,15.63
2017-06-23T14:58:21.028Z,12.53
2017-06-23T15:00:50.168Z,15.00
2017-06-23T15:03:19.628Z,18.07
2017-06-23T15:05:48.695Z,18.43
2017-06-23T15:08:16.982Z,24.10
2017-06-23T15:10:45.299Z,26.50
2017-06-23T15:13:13.642Z,19.37
2017-06-23T15:15:41.975Z,19.90
2017-06-23T15:18:10.471Z,16.30
2017-06-23T15:20:38.815Z,26.53
2017-06-23T15:23:07.125Z,15.70
2017-06-23T15:25:35.460Z,17.30
2017-06-23T15:28:04.534Z,14.20
2017-06-23T15:30:33.834Z,20.40
2017-06-23T15:33:02.546Z,21.23
2017-06-23T15:35:30.888Z,19.63
2017-06-23T15:37:59.276Z,20.80
2017-06-23T15:40:28.543Z,14.77
2017-06-23T15:42:57.204Z,17.10
2017-06-23T15:45:25.599Z,19.33
2017-06-23T15:47:53.920Z,19.90
2017-06-23T15:50:22.288Z,18.20
2017-06-23T15:52:51.412Z,24.53
2017-06-23T15:55:20.315Z,26.90
2017-06-23T15:57:48.641Z,25.13
2017-06-23T16:00:17.364Z,27.13
2017-06-23T16:02:45.674Z,21.43
2017-06-23T16:05:13.970Z,22.33
2017-06-23T16:07:42.306Z,23.50
2017-06-23T16:10:10.637Z,23.27
2017-06-23T16:12:39.747Z,28.73
2017-06-23T16:15:08.062Z,33.00
2017-06-23T16:17:36.410Z,27.27
2017-06-23T16:20:04.733Z,18.77
2017-06-23T16:22:33.335Z,18.27
2017-06-23T16:25:01.683Z,17.97
2017-06-23T16:27:30.172Z,19.73
2017-06-23T16:29:58.482Z,19.30
2017-06-23T16:32:26.781Z,21.60
2017-06-23T16:34:55.123Z,19.70
2017-06-23T16:37:23.436Z,28.10
2017-06-23T16:39:51.753Z,29.53
2017-06-23T16:42:20.063Z,24.47
2017-06-23T16:44:48.420Z,33.77
2017-06-23T16:47:16.730Z,22.23
2017-06-23T16:49:45.112Z,21.23
2017-06-23T16:52:13.526Z,22.50
2017-06-23T16:54:43.142Z,23.80
2017-06-23T16:57:11.590Z,23.73
2017-06-23T16:59:40.733Z,25.67
2017-06-23T17:02:09.067Z,25.60
2017-06-23T17:04:37.430Z,35.33
2017-06-23T17:07:05.777Z,26.97
2017-06-23T17:09:34.070Z,24.93
2017-06-23T17:12:02.404Z,37.63
2017-06-23T17:14:30.731Z,37.23
2017-06-23T17:16:59.824Z,38.90
2017-06-23T17:19:28.203Z,37.97
2017-06-23T17:21:56.888Z,50.53
2017-06-23T17:24:25.208Z,45.30
2017-06-23T17:26:53.495Z,43.50
2017-06-23T17:29:21.926Z,47.27
2017-06-23T17:31:50.239Z,53.60
2017-06-23T17:34:18.572Z,48.97
2017-06-23T17:36:47.646Z,48.13
2017-06-23T17:39:16.155Z,41.90
2017-06-23T17:41:44.606Z,42.87
2017-06-23T17:44:13.943Z,35.43
2017-06-23T17:46:42.305Z,45.70
2017-06-23T17:49:11.378Z,39.10
2017-06-23T17:51:39.787Z,54.23
2017-06-23T17:54:08.852Z,52.03
2017-06-23T17:56:37.240Z,41.27
2017-06-23T17:59:05.536Z,35.43
2017-06-23T18:01:33.950Z,29.90
2017-06-23T18:04:02.286Z,29.00
2017-06-23T18:06:31.360Z,26.10
2017-06-23T18:08:59.696Z,26.90
2017-06-23T18:11:28.026Z,25.67
2017-06-23T18:13:57.123Z,27.40
2017-06-23T18:16:26.208Z,28.10
2017-06-23T18:18:54.701Z,47.27
2017-06-23T18:21:23.770Z,31.17
2017-06-23T18:23:52.168Z,25.83
2017-06-23T18:26:21.267Z,28.80
2017-06-23T18:28:49.590Z,31.33
2017-06-23T18:31:18.136Z,30.27
2017-06-23T18:33:47.230Z,32.20
2017-06-23T18:36:16.499Z,30.60
2017-06-23T18:38:44.916Z,38.63
2017-06-23T18:41:13.352Z,55.27
2017-06-23T18:43:41.972Z,45.23
2017-06-23T18:46:11.037Z,28.43
2017-06-23T18:48:39.436Z,40.60
2017-06-23T18:51:07.810Z,38.27
2017-06-23T18:53:36.928Z,41.20
2017-06-23T18:56:05.490Z,31.87
2017-06-23T18:58:33.867Z,35.37
2017-06-23T19:01:03.067Z,25.53
2017-06-23T19:03:31.413Z,28.23
2017-06-23T19:05:59.878Z,37.37
2017-06-23T19:08:28.260Z,28.93
2017-06-23T19:10:57.519Z,37.73
2017-06-23T19:13:25.848Z,38.23
2017-06-23T19:15:54.146Z,42.00
2017-06-23T19:18:22.485Z,39.30
2017-06-23T19:20:51.021Z,37.90
2017-06-23T19:23:19.618Z,20.43
2017-06-23T19:25:48.695Z,27.23
2017-06-23T19:28:17.747Z,32.83
2017-06-23T19:30:46.171Z,19.80
2017-06-23T19:33:14.540Z,25.07
2017-06-23T19:35:43.846Z,22.47
2017-06-23T19:38:12.190Z,26.17
2017-06-23T19:40:40.515Z,22.70
2017-06-23T19:43:08.870Z,21.23
2017-06-23T19:45:37.350Z,21.53
2017-06-23T19:48:06.554Z,23.43
2017-06-23T19:50:34.899Z,23.13
2017-06-23T19:53:03.816Z,24.40
2017-06-23T19:55:32.143Z,21.23
2017-06-23T19:58:00.454Z,23.00
2017-06-23T20:00:29.572Z,22.17
2017-06-23T20:02:57.942Z,25.10
2017-06-23T20:05:27.060Z,30.77
2017-06-23T20:07:55.567Z,33.90
2017-06-23T20:10:23.879Z,30.37
2017-06-23T20:12:52.259Z,29.17
2017-06-23T20:15:21.378Z,24.67
2017-06-23T20:17:49.762Z,29.37
2017-06-23T20:20:18.139Z,30.33
2017-06-23T20:22:47.260Z,23.30
2017-06-23T20:25:15.711Z,32.57
2017-06-23T20:27:44.191Z,33.60
2017-06-23T20:30:12.570Z,23.17
2017-06-23T20:32:41.656Z,28.90
2017-06-23T20:35:10.726Z,31.93
2017-06-23T20:37:39.061Z,28.80
2017-06-23T20:40:07.421Z,22.57
2017-06-23T20:42:35.803Z,21.27
2017-06-23T20:45:04.123Z,19.13
2017-06-23T20:47:32.742Z,22.13
2017-06-23T20:50:01.083Z,19.73
2017-06-23T20:52:29.382Z,14.67
2017-06-23T20:54:57.775Z,20.07
2017-06-23T20:57:26.893Z,24.63
2017-06-23T20:59:55.259Z,24.30
2017-06-23T21:02:24.338Z,20.13
2017-06-23T21:04:53.650Z,17.27
2017-06-23T21:07:22.033Z,20.33
2017-06-23T21:09:51.114Z,20.07
2017-06-23T21:12:21.241Z,21.23
2017-06-23T21:14:50.327Z,18.80
2017-06-23T21:17:19.029Z,22.33
2017-06-23T21:19:47.400Z,20.90
2017-06-23T21:22:16.596Z,22.97
2017-06-23T21:24:45.683Z,18.60
2017-06-23T21:27:14.886Z,19.87
2017-06-23T21:29:43.948Z,17.77
2017-06-23T21:32:12.360Z,17.90
2017-06-23T21:34:41.422Z,20.13
2017-06-23T21:37:10.542Z,21.23
2017-06-23T21:39:39.619Z,19.93
2017-06-23T21:42:08.024Z,27.43
2017-06-23T21:44:36.440Z,20.43
2017-06-23T21:47:04.924Z,23.90
2017-06-23T21:49:33.296Z,21.53
2017-06-23T21:52:01.681Z,23.30
2017-06-23T21:57:04.663Z,21.80
2017-06-23T21:59:33.223Z,20.67
2017-06-23T22:02:01.563Z,23.73
2017-06-23T22:04:30.686Z,25.77
2017-06-23T22:06:59.183Z,30.73
2017-06-23T22:09:27.511Z,34.27
2017-06-23T22:11:55.839Z,25.77
2017-06-23T22:14:24.175Z,26.37
2017-06-23T22:16:52.550Z,22.87
2017-06-23T22:19:20.888Z,24.60
2017-06-23T22:21:49.572Z,47.13
2017-06-23T22:24:17.899Z,49.60
2017-06-23T22:26:46.249Z,24.80
2017-06-23T22:29:14.634Z,26.53
2017-06-23T22:31:42.936Z,34.27
2017-06-23T22:34:11.313Z,29.13
2017-06-23T22:36:39.885Z,23.00
2017-06-23T22:39:08.248Z,29.57
2017-06-23T22:41:36.590Z,34.83
2017-06-23T22:44:05.054Z,28.67
2017-06-23T22:46:34.222Z,37.00
2017-06-23T22:49:02.584Z,26.57
2017-06-23T22:51:31.716Z,24.97
2017-06-23T22:54:00.092Z,22.10
2017-06-23T22:56:28.442Z,34.17
2017-06-23T22:58:56.812Z,38.63
2017-06-23T23:01:25.995Z,23.20
2017-06-23T23:03:54.355Z,20.27
2017-06-23T23:06:23.840Z,21.73
2017-06-23T23:08:52.166Z,30.00
2017-06-23T23:11:20.463Z,31.73
2017-06-23T23:13:49.565Z,27.17
2017-06-23T23:16:17.895Z,22.17
2017-06-23T23:18:46.279Z,34.47
2017-06-23T23:21:14.708Z,19.60
2017-06-23T23:23:43.803Z,22.00
2017-06-23T23:26:12.904Z,21.40
2017-06-23T23:28:41.991Z,23.83
2017-06-23T23:31:11.095Z,31.93
2017-06-23T23:33:40.593Z,31.97
2017-06-23T23:36:09.786Z,21.40
2017-06-23T23:38:38.869Z,38.93
2017-06-23T23:41:07.263Z,41.53
2017-06-23T23:43:35.648Z,32.30
2017-06-23T23:46:04.103Z,21.00
2017-06-23T23:48:33.184Z,18.40
2017-06-23T23:51:02.516Z,22.57
2017-06-23T23:53:31.594Z,19.10
2017-06-23T23:55:59.994Z,25.33
2017-06-23T23:58:28.377Z,23.03
